createdAt,value
2022-11-26T00:00:52.000Z,150
2022-11-26T00:02:08.000Z,152
2022-11-26T00:03:25.000Z,151
2022-11-26T00:04:41.000Z,154
2022-11-26T00:05:57.000Z,153
2022-11-26T00:07:13.000Z,150
2022-11-26T00:08:29.000Z,151
2022-11-26T00:09:46.000Z,151
2022-11-26T00:11:02.000Z,151
2022-11-26T00:12:18.000Z,152
2022-11-26T00:13:34.000Z,153
2022-11-26T00:14:51.000Z,152
2022-11-26T00:16:06.000Z,154
2022-11-26T00:17:22.000Z,152
2022-11-26T00:18:38.000Z,153
2022-11-26T00:19:55.000Z,151
2022-11-26T00:21:11.000Z,153
2022-11-26T00:22:27.000Z,152
2022-11-26T00:23:42.000Z,153
2022-11-26T00:24:58.000Z,156
2022-11-26T00:26:13.000Z,158
2022-11-26T00:27:28.000Z,159
2022-11-26T00:28:44.000Z,156
2022-11-26T00:30:01.000Z,157
2022-11-26T00:31:17.000Z,161
2022-11-26T00:32:33.000Z,158
2022-11-26T00:33:49.000Z,157
2022-11-26T00:35:05.000Z,165
2022-11-26T00:36:22.000Z,172
2022-11-26T00:37:38.000Z,141
2022-11-26T00:38:54.000Z,119
2022-11-26T00:40:10.000Z,128
2022-11-26T00:41:27.000Z,130
2022-11-26T00:42:43.000Z,130
2022-11-26T00:43:59.000Z,132
2022-11-26T00:45:14.000Z,132
2022-11-26T00:46:31.000Z,139
2022-11-26T00:47:47.000Z,139
2022-11-26T00:49:03.000Z,135
2022-11-26T00:50:19.000Z,140
2022-11-26T00:51:36.000Z,144
2022-11-26T00:52:51.000Z,145
2022-11-26T00:54:06.000Z,143
2022-11-26T00:55:22.000Z,142
2022-11-26T00:56:39.000Z,144
2022-11-26T00:57:54.000Z,145
2022-11-26T00:59:09.000Z,143
2022-11-26T01:00:25.000Z,142
2022-11-26T01:01:41.000Z,141
2022-11-26T01:02:58.000Z,145
2022-11-26T01:04:14.000Z,145
2022-11-26T01:05:30.000Z,144
2022-11-26T01:06:46.000Z,139
2022-11-26T01:08:03.000Z,140
2022-11-26T01:09:19.000Z,144
2022-11-26T01:10:35.000Z,144
2022-11-26T01:11:51.000Z,143
2022-11-26T01:13:08.000Z,141
2022-11-26T01:14:24.000Z,143
2022-11-26T01:15:39.000Z,139
2022-11-26T01:16:55.000Z,140
2022-11-26T01:18:12.000Z,144
2022-11-26T01:19:28.000Z,144
2022-11-26T01:20:44.000Z,145
2022-11-26T01:22:00.000Z,143
2022-11-26T01:23:16.000Z,143
2022-11-26T01:24:33.000Z,144
2022-11-26T01:25:49.000Z,143
2022-11-26T01:27:05.000Z,144
2022-11-26T01:28:21.000Z,142
2022-11-26T01:29:38.000Z,140
2022-11-26T01:30:54.000Z,142
2022-11-26T01:32:09.000Z,145
2022-11-26T01:33:25.000Z,145
2022-11-26T01:34:42.000Z,143
2022-11-26T01:35:58.000Z,145
2022-11-26T01:37:14.000Z,146
2022-11-26T01:38:30.000Z,145
2022-11-26T01:39:47.000Z,145
2022-11-26T01:41:03.000Z,145
2022-11-26T01:42:19.000Z,144
2022-11-26T01:43:34.000Z,144
2022-11-26T01:44:50.000Z,144
2022-11-26T01:46:06.000Z,144
2022-11-26T01:47:22.000Z,144
2022-11-26T01:48:38.000Z,146
2022-11-26T01:49:53.000Z,146
2022-11-26T01:51:09.000Z,143
2022-11-26T01:52:25.000Z,143
2022-11-26T01:53:41.000Z,147
2022-11-26T01:54:57.000Z,144
2022-11-26T01:56:14.000Z,144
2022-11-26T01:57:30.000Z,146
2022-11-26T01:58:46.000Z,144
2022-11-26T02:00:02.000Z,148
2022-11-26T02:01:19.000Z,146
2022-11-26T02:02:35.000Z,146
2022-11-26T02:03:51.000Z,144
2022-11-26T02:05:07.000Z,147
2022-11-26T02:06:24.000Z,145
2022-11-26T02:07:39.000Z,148
2022-11-26T02:08:55.000Z,144
2022-11-26T02:10:11.000Z,143
2022-11-26T02:11:28.000Z,143
2022-11-26T02:12:44.000Z,143
2022-11-26T02:14:00.000Z,145
2022-11-26T02:15:16.000Z,148
2022-11-26T02:16:32.000Z,148
2022-11-26T02:17:49.000Z,148
2022-11-26T02:19:05.000Z,145
2022-11-26T02:20:21.000Z,145
2022-11-26T02:21:37.000Z,144
2022-11-26T02:22:54.000Z,145
2022-11-26T02:24:09.000Z,149
2022-11-26T02:25:25.000Z,151
2022-11-26T02:26:41.000Z,149
2022-11-26T02:27:58.000Z,147
2022-11-26T02:29:14.000Z,148
2022-11-26T02:30:30.000Z,151
2022-11-26T02:31:46.000Z,151
2022-11-26T02:33:02.000Z,151
2022-11-26T02:34:19.000Z,149
2022-11-26T02:35:35.000Z,147
2022-11-26T02:36:51.000Z,149
2022-11-26T02:38:07.000Z,147
2022-11-26T02:39:24.000Z,148
2022-11-26T02:40:39.000Z,151
2022-11-26T02:41:55.000Z,149
2022-11-26T02:43:11.000Z,152
2022-11-26T02:44:28.000Z,149
2022-11-26T02:45:44.000Z,150
2022-11-26T02:47:00.000Z,151
2022-11-26T02:48:16.000Z,150
2022-11-26T02:49:33.000Z,149
2022-11-26T02:50:49.000Z,148
2022-11-26T02:52:05.000Z,150
2022-11-26T02:53:21.000Z,151
2022-11-26T02:54:37.000Z,151
2022-11-26T02:55:54.000Z,149
2022-11-26T02:57:09.000Z,150
2022-11-26T02:58:25.000Z,153
2022-11-26T02:59:41.000Z,150
2022-11-26T03:00:58.000Z,152
2022-11-26T03:02:14.000Z,150
2022-11-26T03:03:30.000Z,151
2022-11-26T03:04:46.000Z,152
2022-11-26T03:06:02.000Z,151
2022-11-26T03:07:18.000Z,152
2022-11-26T03:08:34.000Z,149
2022-11-26T03:09:50.000Z,150
2022-11-26T03:11:07.000Z,150
2022-11-26T03:12:23.000Z,153
2022-11-26T03:13:39.000Z,149
2022-11-26T03:14:55.000Z,152
2022-11-26T03:16:12.000Z,150
2022-11-26T03:17:28.000Z,151
2022-11-26T03:18:44.000Z,151
2022-11-26T03:20:00.000Z,152
2022-11-26T03:21:16.000Z,151
2022-11-26T03:22:32.000Z,154
2022-11-26T03:23:48.000Z,154
2022-11-26T03:25:04.000Z,153
2022-11-26T03:26:20.000Z,151
2022-11-26T03:27:37.000Z,152
2022-11-26T03:28:53.000Z,154
2022-11-26T03:30:09.000Z,154
2022-11-26T03:31:25.000Z,152
2022-11-26T03:32:42.000Z,153
2022-11-26T03:33:58.000Z,152
2022-11-26T03:35:14.000Z,153
2022-11-26T03:36:30.000Z,153
2022-11-26T03:37:47.000Z,150
2022-11-26T03:39:02.000Z,151
2022-11-26T03:40:18.000Z,155
2022-11-26T03:41:34.000Z,154
2022-11-26T03:42:50.000Z,153
2022-11-26T03:44:07.000Z,155
2022-11-26T03:45:23.000Z,153
2022-11-26T03:46:39.000Z,153
2022-11-26T03:47:55.000Z,154
2022-11-26T03:49:12.000Z,155
2022-11-26T03:50:28.000Z,155
2022-11-26T03:51:44.000Z,155
2022-11-26T03:53:00.000Z,155
2022-11-26T03:54:17.000Z,154
2022-11-26T03:55:32.000Z,152
2022-11-26T03:56:48.000Z,159
2022-11-26T03:58:04.000Z,154
2022-11-26T03:59:21.000Z,153
2022-11-26T04:00:37.000Z,153
2022-11-26T04:01:53.000Z,153
2022-11-26T04:03:09.000Z,156
2022-11-26T04:04:25.000Z,155
2022-11-26T04:05:42.000Z,154
2022-11-26T04:06:58.000Z,160
2022-11-26T04:08:14.000Z,157
2022-11-26T04:09:30.000Z,159
2022-11-26T04:10:47.000Z,158
2022-11-26T04:12:02.000Z,155
2022-11-26T04:13:18.000Z,157
2022-11-26T04:14:34.000Z,157
2022-11-26T04:15:51.000Z,158
2022-11-26T04:17:07.000Z,153
2022-11-26T04:19:39.000Z,156
2022-11-26T04:20:56.000Z,159
2022-11-26T04:22:12.000Z,158
2022-11-26T04:23:28.000Z,160
2022-11-26T04:24:44.000Z,158
2022-11-26T04:26:00.000Z,155
2022-11-26T04:27:17.000Z,159
2022-11-26T04:28:32.000Z,158
2022-11-26T04:29:48.000Z,154
2022-11-26T04:31:04.000Z,156
2022-11-26T04:32:21.000Z,158
2022-11-26T04:33:37.000Z,160
2022-11-26T04:34:53.000Z,160
2022-11-26T04:36:09.000Z,158
2022-11-26T04:37:26.000Z,161
2022-11-26T04:38:42.000Z,159
2022-11-26T04:39:58.000Z,158
2022-11-26T04:41:14.000Z,157
2022-11-26T04:42:30.000Z,159
2022-11-26T04:43:47.000Z,160
2022-11-26T04:45:03.000Z,163
2022-11-26T04:46:18.000Z,163
2022-11-26T04:47:34.000Z,163
2022-11-26T04:48:51.000Z,161
2022-11-26T04:50:07.000Z,159
2022-11-26T04:51:23.000Z,157
2022-11-26T04:52:39.000Z,162
2022-11-26T04:53:56.000Z,160
2022-11-26T04:55:12.000Z,157
2022-11-26T04:56:28.000Z,161
2022-11-26T04:57:44.000Z,159
2022-11-26T04:59:01.000Z,155
2022-11-26T05:01:33.000Z,156
2022-11-26T05:02:48.000Z,155
2022-11-26T05:04:05.000Z,156
2022-11-26T05:05:21.000Z,153
2022-11-26T05:06:37.000Z,152
2022-11-26T05:07:53.000Z,155
2022-11-26T05:09:09.000Z,155
2022-11-26T05:10:26.000Z,151
2022-11-26T05:11:42.000Z,156
2022-11-26T05:12:58.000Z,158
2022-11-26T05:14:14.000Z,153
2022-11-26T05:15:31.000Z,152
2022-11-26T05:16:47.000Z,156
2022-11-26T05:18:03.000Z,157
2022-11-26T05:19:18.000Z,157
2022-11-26T05:20:35.000Z,153
2022-11-26T05:21:51.000Z,155
2022-11-26T05:23:07.000Z,153
2022-11-26T05:24:23.000Z,157
2022-11-26T05:25:39.000Z,155
2022-11-26T05:26:56.000Z,154
2022-11-26T05:28:12.000Z,153
2022-11-26T05:29:28.000Z,153
2022-11-26T05:30:44.000Z,157
2022-11-26T05:32:01.000Z,154
2022-11-26T05:33:17.000Z,159
2022-11-26T05:34:33.000Z,159
2022-11-26T05:35:48.000Z,160
2022-11-26T05:37:05.000Z,159
2022-11-26T05:38:21.000Z,158
2022-11-26T05:39:37.000Z,162
2022-11-26T05:40:53.000Z,162
2022-11-26T05:42:10.000Z,162
2022-11-26T05:43:26.000Z,161
2022-11-26T05:44:42.000Z,161
2022-11-26T05:45:58.000Z,164
2022-11-26T05:47:14.000Z,161
2022-11-26T05:48:31.000Z,161
2022-11-26T05:49:47.000Z,161
2022-11-26T05:51:03.000Z,159
2022-11-26T05:52:18.000Z,160
2022-11-26T05:53:35.000Z,162
2022-11-26T05:54:51.000Z,164
2022-11-26T05:56:07.000Z,160
2022-11-26T05:57:23.000Z,160
2022-11-26T05:58:40.000Z,164
2022-11-26T05:59:56.000Z,164
2022-11-26T06:01:12.000Z,165
2022-11-26T06:02:28.000Z,163
2022-11-26T06:03:45.000Z,162
2022-11-26T06:05:01.000Z,164
2022-11-26T06:06:17.000Z,166
2022-11-26T06:07:33.000Z,167
2022-11-26T06:08:48.000Z,165
2022-11-26T06:10:05.000Z,165
2022-11-26T06:11:21.000Z,170
2022-11-26T06:12:37.000Z,166
2022-11-26T06:13:53.000Z,164
2022-11-26T06:15:10.000Z,168
2022-11-26T06:16:26.000Z,166
2022-11-26T06:17:42.000Z,164
2022-11-26T06:18:58.000Z,165
2022-11-26T06:20:15.000Z,162
2022-11-26T06:21:31.000Z,165
2022-11-26T06:22:47.000Z,172
2022-11-26T06:24:03.000Z,170
2022-11-26T06:25:19.000Z,169
2022-11-26T06:26:35.000Z,172
2022-11-26T06:27:51.000Z,170
2022-11-26T06:29:07.000Z,172
2022-11-26T06:30:23.000Z,176
2022-11-26T06:31:40.000Z,176
2022-11-26T06:32:56.000Z,172
2022-11-26T06:34:12.000Z,171
2022-11-26T06:35:28.000Z,174
2022-11-26T06:38:01.000Z,180
2022-11-26T06:39:17.000Z,177
2022-11-26T06:40:33.000Z,180
2022-11-26T06:41:49.000Z,185
2022-11-26T06:43:05.000Z,187
2022-11-26T06:44:21.000Z,192
2022-11-26T06:45:37.000Z,196
2022-11-26T06:46:54.000Z,197
2022-11-26T06:48:10.000Z,203
2022-11-26T06:49:26.000Z,161
2022-11-26T06:50:42.000Z,22
2022-11-26T06:51:58.000Z,31
2022-11-26T06:53:15.000Z,38
2022-11-26T06:54:31.000Z,41
2022-11-26T06:55:47.000Z,48
2022-11-26T06:57:03.000Z,56
2022-11-26T06:58:19.000Z,65
2022-11-26T06:59:35.000Z,73
2022-11-26T07:00:51.000Z,95
2022-11-26T07:02:07.000Z,100
2022-11-26T07:03:24.000Z,119
2022-11-26T07:04:40.000Z,140
2022-11-26T07:05:56.000Z,148
2022-11-26T07:07:12.000Z,154
2022-11-26T07:08:29.000Z,193
2022-11-26T07:09:45.000Z,209
2022-11-26T07:11:01.000Z,230
2022-11-26T07:12:17.000Z,239
2022-11-26T07:13:33.000Z,273
2022-11-26T07:14:49.000Z,284
2022-11-26T07:17:21.000Z,333
2022-11-26T07:18:37.000Z,367
2022-11-26T07:19:54.000Z,382
2022-11-26T07:21:09.000Z,400
2022-11-26T07:22:25.000Z,415
2022-11-26T07:23:41.000Z,443
2022-11-26T07:24:58.000Z,464
2022-11-26T07:26:14.000Z,506
2022-11-26T07:27:30.000Z,525
2022-11-26T07:28:46.000Z,549
2022-11-26T07:30:03.000Z,577
2022-11-26T07:31:19.000Z,589
2022-11-26T07:32:35.000Z,610
2022-11-26T07:33:51.000Z,660
2022-11-26T07:35:07.000Z,709
2022-11-26T07:36:24.000Z,705
2022-11-26T07:37:39.000Z,770
2022-11-26T07:38:55.000Z,769
2022-11-26T07:41:28.000Z,884
2022-11-26T07:42:44.000Z,952
2022-11-26T07:44:00.000Z,938
2022-11-26T07:45:16.000Z,983
2022-11-26T07:46:33.000Z,1097
2022-11-26T07:47:49.000Z,960
2022-11-26T07:49:05.000Z,1195
2022-11-26T07:50:21.000Z,1204
2022-11-26T07:51:38.000Z,1216
2022-11-26T07:52:54.000Z,1218
2022-11-26T07:55:25.000Z,1305
2022-11-26T07:56:41.000Z,1203
2022-11-26T07:57:58.000Z,1481
2022-11-26T07:59:14.000Z,1448
2022-11-26T08:00:30.000Z,1590
2022-11-26T08:01:46.000Z,1594
2022-11-26T08:03:03.000Z,1596
2022-11-26T08:04:19.000Z,1776
2022-11-26T08:05:35.000Z,1816
2022-11-26T08:08:08.000Z,1998
2022-11-26T08:09:24.000Z,1929
2022-11-26T08:10:39.000Z,1835
2022-11-26T08:11:55.000Z,2152
2022-11-26T08:13:12.000Z,2054
2022-11-26T08:14:28.000Z,2197
2022-11-26T08:15:44.000Z,1970
2022-11-26T08:17:00.000Z,2491
2022-11-26T08:18:16.000Z,2199
2022-11-26T08:19:33.000Z,2508
2022-11-26T08:20:49.000Z,2446
2022-11-26T08:22:05.000Z,2348
2022-11-26T08:23:21.000Z,2712
2022-11-26T08:24:38.000Z,2214
2022-11-26T08:25:54.000Z,2831
2022-11-26T08:27:09.000Z,2907
2022-11-26T08:28:25.000Z,2611
2022-11-26T08:29:42.000Z,2716
2022-11-26T08:30:58.000Z,3005
2022-11-26T08:32:14.000Z,3013
2022-11-26T08:33:30.000Z,2488
2022-11-26T08:34:47.000Z,3118
2022-11-26T08:36:03.000Z,2671
2022-11-26T08:37:19.000Z,3390
2022-11-26T08:38:35.000Z,3383
2022-11-26T08:39:51.000Z,2969
2022-11-26T08:41:08.000Z,3119
2022-11-26T08:43:40.000Z,2988
2022-11-26T08:44:55.000Z,2436
2022-11-26T08:46:12.000Z,3444
2022-11-26T08:47:28.000Z,3107
2022-11-26T08:48:44.000Z,3163
2022-11-26T08:50:00.000Z,3396
2022-11-26T08:51:17.000Z,2922
2022-11-26T08:52:33.000Z,3687
2022-11-26T08:53:49.000Z,2637
2022-11-26T08:55:05.000Z,3659
2022-11-26T08:56:22.000Z,3307
2022-11-26T08:57:38.000Z,3356
2022-11-26T08:58:54.000Z,3738
2022-11-26T09:00:10.000Z,3541
2022-11-26T09:01:25.000Z,3175
2022-11-26T09:02:42.000Z,3701
2022-11-26T09:03:58.000Z,3217
2022-11-26T09:05:14.000Z,3950
2022-11-26T09:06:30.000Z,3064
2022-11-26T09:07:47.000Z,3508
2022-11-26T09:09:03.000Z,4177
2022-11-26T09:10:19.000Z,3129
2022-11-26T09:11:35.000Z,4136
2022-11-26T09:12:52.000Z,4023
2022-11-26T09:14:08.000Z,3463
2022-11-26T09:15:24.000Z,4130
2022-11-26T09:16:40.000Z,3971
2022-11-26T09:17:56.000Z,3414
2022-11-26T09:19:12.000Z,4371
2022-11-26T09:20:28.000Z,3933
2022-11-26T09:21:44.000Z,3824
2022-11-26T09:23:00.000Z,3890
2022-11-26T09:24:17.000Z,4303
2022-11-26T09:25:33.000Z,3694
2022-11-26T09:26:49.000Z,4339
2022-11-26T09:28:05.000Z,3535
2022-11-26T09:29:22.000Z,4297
2022-11-26T09:30:38.000Z,4416
2022-11-26T09:31:54.000Z,4580
2022-11-26T09:33:10.000Z,4393
2022-11-26T09:34:26.000Z,4526
2022-11-26T09:35:42.000Z,4800
2022-11-26T09:36:58.000Z,4567
2022-11-26T09:38:14.000Z,4864
2022-11-26T09:39:31.000Z,4854
2022-11-26T09:40:47.000Z,4722
2022-11-26T09:42:03.000Z,4582
2022-11-26T09:43:19.000Z,4633
2022-11-26T09:44:35.000Z,5284
2022-11-26T09:45:52.000Z,5687
2022-11-26T09:47:08.000Z,5280
2022-11-26T09:48:24.000Z,4961
2022-11-26T09:49:40.000Z,4318
2022-11-26T09:50:56.000Z,5160
2022-11-26T09:52:12.000Z,5261
2022-11-26T09:53:28.000Z,4792
2022-11-26T09:54:44.000Z,5269
2022-11-26T09:56:01.000Z,4976
2022-11-26T09:57:17.000Z,4920
2022-11-26T09:58:33.000Z,5229
2022-11-26T09:59:49.000Z,4959
2022-11-26T10:01:06.000Z,4658
2022-11-26T10:02:22.000Z,5500
2022-11-26T10:03:38.000Z,4839
2022-11-26T10:04:54.000Z,5797
2022-11-26T10:06:10.000Z,5260
2022-11-26T10:07:26.000Z,4830
2022-11-26T10:08:42.000Z,5307
2022-11-26T10:09:58.000Z,4988
2022-11-26T10:11:14.000Z,5109
2022-11-26T10:12:31.000Z,5314
2022-11-26T10:15:03.000Z,4851
2022-11-26T10:16:19.000Z,4745
2022-11-26T10:17:36.000Z,4776
2022-11-26T10:18:52.000Z,4798
2022-11-26T10:20:08.000Z,4885
2022-11-26T10:21:24.000Z,5185
2022-11-26T10:22:41.000Z,4989
2022-11-26T10:23:56.000Z,5410
2022-11-26T10:25:12.000Z,5151
2022-11-26T10:26:28.000Z,5101
2022-11-26T10:27:44.000Z,5071
2022-11-26T10:29:01.000Z,5399
2022-11-26T10:30:17.000Z,5649
2022-11-26T10:31:33.000Z,5338
2022-11-26T10:32:49.000Z,5439
2022-11-26T10:34:06.000Z,5487
2022-11-26T10:35:22.000Z,5351
2022-11-26T10:36:38.000Z,5150
2022-11-26T10:37:54.000Z,5161
2022-11-26T10:39:11.000Z,5507
2022-11-26T10:40:27.000Z,5169
2022-11-26T10:41:42.000Z,4947
2022-11-26T10:42:58.000Z,5600
2022-11-26T10:44:15.000Z,5080
2022-11-26T10:45:31.000Z,5288
2022-11-26T10:46:47.000Z,5871
2022-11-26T10:48:03.000Z,5610
2022-11-26T10:49:19.000Z,5521
2022-11-26T10:50:36.000Z,5521
2022-11-26T10:51:52.443Z,5822
2022-11-26T10:53:08.000Z,6068
2022-11-26T10:54:24.000Z,5827
2022-11-26T10:55:41.000Z,6069
2022-11-26T10:56:57.000Z,5693
2022-11-26T10:58:13.000Z,5836
2022-11-26T10:59:28.000Z,5873
2022-11-26T11:00:45.000Z,5804
2022-11-26T11:02:01.000Z,5662
2022-11-26T11:03:17.000Z,5480
2022-11-26T11:04:33.000Z,5464
2022-11-26T11:05:50.000Z,5666
2022-11-26T11:07:06.000Z,5298
2022-11-26T11:08:22.000Z,5317
2022-11-26T11:09:38.000Z,5528
2022-11-26T11:10:54.000Z,5687
2022-11-26T11:12:11.000Z,5382
2022-11-26T11:13:27.000Z,5720
2022-11-26T11:14:43.000Z,5460
2022-11-26T11:15:58.000Z,5502
2022-11-26T11:17:15.000Z,5620
2022-11-26T11:18:31.000Z,5427
2022-11-26T11:19:47.000Z,5734
2022-11-26T11:21:03.000Z,5713
2022-11-26T11:22:20.000Z,5648
2022-11-26T11:23:36.000Z,5730
2022-11-26T11:24:52.000Z,5630
2022-11-26T11:26:08.000Z,5838
2022-11-26T11:27:25.000Z,5862
2022-11-26T11:28:41.000Z,5826
2022-11-26T11:29:57.000Z,5903
2022-11-26T11:31:13.000Z,5964
2022-11-26T11:32:28.000Z,6024
2022-11-26T11:33:45.000Z,6088
2022-11-26T11:35:01.000Z,6192
2022-11-26T11:36:16.000Z,6100
2022-11-26T11:37:32.000Z,6025
2022-11-26T11:40:05.000Z,5931
2022-11-26T11:41:21.000Z,5808
2022-11-26T11:42:37.000Z,5795
2022-11-26T11:43:54.000Z,5840
2022-11-26T11:45:10.000Z,5728
2022-11-26T11:46:26.000Z,5988
2022-11-26T11:47:42.000Z,5913
2022-11-26T11:48:59.000Z,5942
2022-11-26T11:50:15.000Z,5961
2022-11-26T11:51:31.000Z,5593
2022-11-26T11:52:46.000Z,6433
2022-11-26T11:54:02.000Z,5766
2022-11-26T11:55:19.000Z,5784
2022-11-26T11:56:35.000Z,6169
2022-11-26T11:57:51.000Z,6224
2022-11-26T11:59:07.000Z,5843
2022-11-26T12:00:24.000Z,6092
2022-11-26T12:01:40.000Z,5765
2022-11-26T12:02:56.000Z,6364
2022-11-26T12:04:12.000Z,5820
2022-11-26T12:05:29.000Z,5877
2022-11-26T12:06:45.000Z,6451
2022-11-26T12:08:01.000Z,5772
2022-11-26T12:09:17.000Z,5668
2022-11-26T12:10:34.000Z,6376
2022-11-26T12:11:49.000Z,5798
2022-11-26T12:13:05.000Z,5591
2022-11-26T12:14:20.000Z,5614
2022-11-26T12:15:36.000Z,5337
2022-11-26T12:16:52.000Z,5401
2022-11-26T12:18:08.000Z,5604
2022-11-26T12:19:24.000Z,5627
2022-11-26T12:20:40.000Z,5686
2022-11-26T12:21:57.000Z,5660
2022-11-26T12:23:13.000Z,5678
2022-11-26T12:24:28.000Z,5623
2022-11-26T12:25:43.000Z,5518
2022-11-26T12:27:00.000Z,5531
2022-11-26T12:28:16.000Z,5469
2022-11-26T12:29:32.000Z,5479
2022-11-26T12:30:48.000Z,5463
2022-11-26T12:33:21.000Z,5338
2022-11-26T12:34:37.000Z,5444
2022-11-26T12:35:53.000Z,5278
2022-11-26T12:37:10.000Z,5268
2022-11-26T12:38:26.000Z,5283
2022-11-26T12:39:42.000Z,5300
2022-11-26T12:40:58.000Z,5286
2022-11-26T12:42:13.000Z,5192
2022-11-26T12:43:30.000Z,5059
2022-11-26T12:44:46.000Z,4981
2022-11-26T12:46:02.000Z,4978
2022-11-26T12:47:18.000Z,4993
2022-11-26T12:48:35.000Z,4986
2022-11-26T12:49:51.000Z,4991
2022-11-26T12:51:07.000Z,4973
2022-11-26T12:52:23.000Z,4933
2022-11-26T12:53:40.000Z,4928
2022-11-26T12:54:56.000Z,4940
2022-11-26T12:56:12.000Z,4918
2022-11-26T12:57:28.000Z,4888
2022-11-26T12:58:44.000Z,4873
2022-11-26T13:00:00.000Z,4882
2022-11-26T13:01:16.000Z,4907
2022-11-26T13:02:32.000Z,4944
2022-11-26T13:03:48.000Z,4994
2022-11-26T13:05:05.000Z,5035
2022-11-26T13:06:21.000Z,5070
2022-11-26T13:07:37.000Z,5060
2022-11-26T13:08:53.000Z,5020
2022-11-26T13:12:42.000Z,4836
2022-11-26T13:13:58.000Z,4832
2022-11-26T13:15:14.000Z,4832
2022-11-26T13:16:30.000Z,4756
2022-11-26T13:17:46.000Z,4609
2022-11-26T13:19:02.000Z,4475
2022-11-26T13:20:19.000Z,4347
2022-11-26T13:21:35.000Z,4263
2022-11-26T13:22:51.000Z,4195
2022-11-26T13:24:07.000Z,4128
2022-11-26T13:25:23.000Z,4065
2022-11-26T13:26:40.000Z,4001
2022-11-26T13:27:56.000Z,3916
2022-11-26T13:29:12.000Z,3841
2022-11-26T13:30:28.000Z,3793
2022-11-26T13:31:44.000Z,3759
2022-11-26T13:33:00.000Z,3660
2022-11-26T13:34:16.000Z,3554
2022-11-26T13:35:32.000Z,3480
2022-11-26T13:36:49.000Z,3411
2022-11-26T13:38:05.000Z,3357
2022-11-26T13:39:21.000Z,3341
2022-11-26T13:40:37.000Z,3309
2022-11-26T13:41:54.000Z,3268
2022-11-26T13:43:10.000Z,3220
2022-11-26T13:44:26.000Z,3177
2022-11-26T13:45:42.000Z,3124
2022-11-26T13:46:58.000Z,3077
2022-11-26T13:48:14.000Z,3021
2022-11-26T13:49:30.000Z,2990
2022-11-26T13:50:46.000Z,2947
2022-11-26T13:52:02.000Z,2899
2022-11-26T13:53:19.000Z,2854
2022-11-26T13:54:35.000Z,2781
2022-11-26T13:55:51.000Z,2711
2022-11-26T13:57:07.000Z,2666
2022-11-26T13:58:24.000Z,2611
2022-11-26T13:59:40.000Z,2571
2022-11-26T14:00:56.000Z,2529
2022-11-26T14:02:12.000Z,2479
2022-11-26T14:03:28.000Z,2403
2022-11-26T14:04:44.000Z,2331
2022-11-26T14:06:00.000Z,2271
2022-11-26T14:07:16.000Z,2193
2022-11-26T14:08:32.000Z,2107
2022-11-26T14:09:49.000Z,2023
2022-11-26T14:11:05.000Z,1944
2022-11-26T14:12:21.000Z,1878
2022-11-26T14:13:37.000Z,1805
2022-11-26T14:14:54.000Z,1743
2022-11-26T14:16:10.000Z,1685
2022-11-26T14:17:26.000Z,1617
2022-11-26T14:18:42.000Z,1551
2022-11-26T14:19:59.000Z,1511
2022-11-26T14:21:14.000Z,1480
2022-11-26T14:22:30.000Z,1446
2022-11-26T14:23:46.000Z,1405
2022-11-26T14:25:02.000Z,1357
2022-11-26T14:26:19.000Z,1309
2022-11-26T14:27:35.000Z,1266
2022-11-26T14:28:51.000Z,1216
2022-11-26T14:30:07.000Z,1184
2022-11-26T14:31:24.000Z,1147
2022-11-26T14:32:40.000Z,1098
2022-11-26T14:33:56.000Z,1045
2022-11-26T14:35:12.000Z,1002
2022-11-26T14:36:29.000Z,969
2022-11-26T14:37:44.000Z,943
2022-11-26T14:39:00.000Z,916
2022-11-26T14:40:16.000Z,886
2022-11-26T14:41:33.000Z,853
2022-11-26T14:42:49.000Z,829
2022-11-26T14:44:05.000Z,806
2022-11-26T14:45:21.000Z,784
2022-11-26T14:46:37.000Z,757
2022-11-26T14:47:54.000Z,737
2022-11-26T14:49:10.000Z,715
2022-11-26T14:50:26.000Z,692
2022-11-26T14:51:42.000Z,664
2022-11-26T14:52:59.000Z,642
2022-11-26T14:54:15.000Z,615
2022-11-26T14:55:30.000Z,592
2022-11-26T14:56:46.000Z,565
2022-11-26T14:58:03.000Z,547
2022-11-26T14:59:19.000Z,515
2022-11-26T15:00:35.000Z,497
2022-11-26T15:01:51.000Z,466
2022-11-26T15:03:08.000Z,440
2022-11-26T15:04:24.000Z,412
2022-11-26T15:05:40.000Z,392
2022-11-26T15:06:56.000Z,371
2022-11-26T15:08:12.000Z,352
2022-11-26T15:09:29.000Z,340
2022-11-26T15:10:45.000Z,327
2022-11-26T15:12:00.000Z,307
2022-11-26T15:13:15.000Z,299
2022-11-26T15:14:32.000Z,299
2022-11-26T15:15:48.000Z,303
2022-11-26T15:17:04.000Z,306
2022-11-26T15:18:20.000Z,310
2022-11-26T15:19:37.000Z,299
2022-11-26T15:20:53.000Z,295
2022-11-26T15:22:08.000Z,307
2022-11-26T15:23:23.000Z,307
2022-11-26T15:24:40.000Z,292
2022-11-26T15:25:56.000Z,250
2022-11-26T15:27:12.000Z,213
2022-11-26T15:28:28.000Z,191
2022-11-26T15:29:45.000Z,174
2022-11-26T15:31:01.000Z,148
2022-11-26T15:32:17.000Z,123
2022-11-26T15:33:33.000Z,129
2022-11-26T15:34:49.000Z,122
2022-11-26T15:36:06.000Z,103
2022-11-26T15:37:22.000Z,84
2022-11-26T15:38:38.000Z,68
2022-11-26T15:39:53.000Z,59
2022-11-26T15:41:10.000Z,49
2022-11-26T15:42:26.000Z,39
2022-11-26T15:43:42.000Z,34
2022-11-26T15:44:58.000Z,12
2022-11-26T15:46:15.000Z,191
2022-11-26T15:47:31.000Z,187
2022-11-26T15:48:47.000Z,181
2022-11-26T15:50:03.000Z,176
2022-11-26T15:51:19.000Z,175
2022-11-26T15:52:35.000Z,173
2022-11-26T15:53:51.000Z,168
2022-11-26T15:55:07.000Z,169
2022-11-26T15:56:24.000Z,167
2022-11-26T15:57:40.000Z,163
2022-11-26T15:58:56.000Z,163
2022-11-26T16:00:12.000Z,162
2022-11-26T16:01:28.000Z,164
2022-11-26T16:02:44.000Z,163
2022-11-26T16:03:59.000Z,161
2022-11-26T16:05:15.000Z,162
2022-11-26T16:06:31.000Z,163
2022-11-26T16:07:48.000Z,163
2022-11-26T16:09:04.000Z,162
2022-11-26T16:10:20.000Z,161
2022-11-26T16:11:35.000Z,163
2022-11-26T16:12:51.000Z,162
2022-11-26T16:14:07.000Z,163
2022-11-26T16:15:23.000Z,161
2022-11-26T16:16:39.000Z,161
2022-11-26T16:17:56.000Z,163
2022-11-26T16:19:12.000Z,163
2022-11-26T16:21:44.000Z,163
2022-11-26T16:23:01.000Z,163
2022-11-26T16:24:17.000Z,160
2022-11-26T16:25:33.000Z,162
2022-11-26T16:26:49.000Z,162
2022-11-26T16:28:05.000Z,161
2022-11-26T16:29:21.000Z,163
2022-11-26T16:30:37.000Z,162
2022-11-26T16:31:53.000Z,161
2022-11-26T16:33:09.000Z,161
2022-11-26T16:34:26.000Z,157
2022-11-26T16:35:42.000Z,159
2022-11-26T16:36:58.000Z,163
2022-11-26T16:38:14.000Z,161
2022-11-26T16:39:31.000Z,158
2022-11-26T16:40:47.000Z,162
2022-11-26T16:42:03.000Z,162
2022-11-26T16:43:19.000Z,162
2022-11-26T16:44:36.000Z,162
2022-11-26T16:45:51.000Z,163
2022-11-26T16:47:07.000Z,162
2022-11-26T16:48:23.000Z,163
2022-11-26T16:49:39.000Z,161
2022-11-26T16:50:56.000Z,159
2022-11-26T16:52:12.000Z,159
2022-11-26T16:53:28.000Z,161
2022-11-26T16:54:44.000Z,160
2022-11-26T16:56:01.000Z,161
2022-11-26T16:57:17.000Z,163
2022-11-26T16:58:33.000Z,161
2022-11-26T16:59:49.000Z,163
2022-11-26T17:01:06.000Z,162
2022-11-26T17:02:21.000Z,163
2022-11-26T17:03:36.000Z,163
2022-11-26T17:04:51.000Z,163
2022-11-26T17:06:07.000Z,163
2022-11-26T17:07:22.000Z,161
2022-11-26T17:08:38.000Z,162
2022-11-26T17:09:54.000Z,162
2022-11-26T17:11:11.000Z,161
2022-11-26T17:12:27.000Z,163
2022-11-26T17:13:43.000Z,161
2022-11-26T17:14:59.000Z,161
2022-11-26T17:16:15.000Z,161
2022-11-26T17:17:32.000Z,158
2022-11-26T17:18:48.000Z,160
2022-11-26T17:20:04.000Z,158
2022-11-26T17:21:20.000Z,160
2022-11-26T17:22:37.000Z,160
2022-11-26T17:23:52.000Z,160
2022-11-26T17:25:08.000Z,159
2022-11-26T17:26:24.000Z,158
2022-11-26T17:27:41.000Z,163
2022-11-26T17:28:57.000Z,160
2022-11-26T17:30:13.000Z,158
2022-11-26T17:31:29.000Z,161
2022-11-26T17:32:46.000Z,156